Time;durP1;ratioP1;P1;durP2;ratioP2;P2;SDS_P1;SDS_P2;PMS_P1;PMS_P2;Temp;Humidity;BMP_temperature;BMP_pressure;BME280_temperature;BME280_humidity;BME280_pressure;Samples;Min_cycle;Max_cycle;Signal;HPM_P1;HPM_P2
2022/07/25 00:00:36;;;;;;;2.60;2.40;;;;;;;;;;5039673;28;20641;-83
2022/07/25 00:03:03;;;;;;;2.75;2.55;;;;;;;;;;5039420;28;20241;-82
2022/07/25 00:05:31;;;;;;;2.50;2.30;;;;;;;;;;5040041;28;20289;-82
2022/07/25 00:07:59;;;;;;;2.33;2.13;;;;;;;;;;5037948;28;20244;-82
2022/07/25 00:10:26;;;;;;;2.33;2.13;;;;;;;;;;5039635;28;20268;-81
2022/07/25 00:12:55;;;;;;;2.47;2.28;;;;;;;;;;5039324;28;20682;-81
2022/07/25 00:15:23;;;;;;;2.38;2.28;;;;;;;;;;5038868;28;20225;-81
2022/07/25 00:17:50;;;;;;;4.03;2.60;;;;;;;;;;5039021;28;20238;-82
2022/07/25 00:20:18;;;;;;;2.13;2.03;;;;;;;;;;5039459;28;20317;-82
2022/07/25 00:22:45;;;;;;;2.42;2.22;;;;;;;;;;5040288;28;20206;-82
2022/07/25 00:25:13;;;;;;;3.45;2.10;;;;;;;;;;5040327;28;20257;-82
2022/07/25 00:27:40;;;;;;;2.00;1.90;;;;;;;;;;5038545;28;20237;-81
2022/07/25 00:30:11;;;;;;;2.13;2.03;;;;;;;;;;5039545;28;20237;-82
2022/07/25 00:32:39;;;;;;;2.53;2.33;;;;;;;;;;5039906;28;20258;-81
2022/07/25 00:35:07;;;;;;;2.63;2.42;;;;;;;;;;5039021;28;20242;-82
2022/07/25 00:37:34;;;;;;;2.10;2.00;;;;;;;;;;5038452;28;20226;-83
2022/07/25 00:40:02;;;;;;;2.10;2.00;;;;;;;;;;5038934;28;20249;-83
2022/07/25 00:42:30;;;;;;;2.80;2.60;;;;;;;;;;5037803;28;20602;-83
2022/07/25 00:44:58;;;;;;;2.42;2.22;;;;;;;;;;5038021;28;20289;-82
2022/07/25 00:47:27;;;;;;;2.40;2.05;;;;;;;;;;5038218;28;20234;-83
2022/07/25 00:49:55;;;;;;;2.50;2.30;;;;;;;;;;5038015;28;20614;-82
2022/07/25 00:52:23;;;;;;;2.88;2.67;;;;;;;;;;5037622;28;20297;-82
2022/07/25 00:54:51;;;;;;;1.92;1.83;;;;;;;;;;5037609;28;20205;-83
2022/07/25 00:57:18;;;;;;;2.30;2.20;;;;;;;;;;5036551;28;20674;-83
2022/07/25 00:59:46;;;;;;;3.40;3.15;;;;;;;;;;5037550;28;20253;-82
2022/07/25 01:02:13;;;;;;;2.42;2.22;;;;;;;;;;5037857;28;20202;-82
2022/07/25 01:04:42;;;;;;;2.58;2.20;;;;;;;;;;5037471;28;20237;-82
2022/07/25 01:07:10;;;;;;;2.15;2.05;;;;;;;;;;5036112;28;20242;-82
2022/07/25 01:09:38;;;;;;;2.28;2.17;;;;;;;;;;5037877;28;20258;-83
2022/07/25 01:12:06;;;;;;;2.00;1.90;;;;;;;;;;5038544;28;20291;-83
2022/07/25 01:14:34;;;;;;;1.95;1.85;;;;;;;;;;5038349;28;20256;-83
2022/07/25 01:17:01;;;;;;;1.83;1.73;;;;;;;;;;5037590;28;20208;-82
2022/07/25 01:19:29;;;;;;;2.13;2.00;;;;;;;;;;5038147;28;20309;-82
2022/07/25 01:21:58;;;;;;;2.40;2.30;;;;;;;;;;5018743;28;20191;-82
2022/07/25 01:24:25;;;;;;;1.88;1.77;;;;;;;;;;5018701;28;20285;-82
2022/07/25 01:26:53;;;;;;;2.30;2.10;;;;;;;;;;5017701;28;20207;-82
2022/07/25 01:29:20;;;;;;;2.50;2.30;;;;;;;;;;5017617;28;20290;-81
2022/07/25 01:31:48;;;;;;;2.40;2.22;;;;;;;;;;5018276;28;20241;-82
2022/07/25 01:34:15;;;;;;;2.05;1.95;;;;;;;;;;5018714;28;20262;-82
2022/07/25 01:36:43;;;;;;;2.13;2.00;;;;;;;;;;5018263;28;20238;-83
2022/07/25 01:39:12;;;;;;;2.22;2.03;;;;;;;;;;5018464;28;20223;-81
2022/07/25 01:41:40;;;;;;;2.17;2.08;;;;;;;;;;5019235;28;20226;-83
2022/07/25 01:44:07;;;;;;;2.28;2.17;;;;;;;;;;5018195;28;20231;-83
2022/07/25 01:46:35;;;;;;;2.63;2.42;;;;;;;;;;5015568;28;20242;-82
2022/07/25 01:49:02;;;;;;;7.55;2.50;;;;;;;;;;5017625;28;20247;-83
2022/07/25 01:51:30;;;;;;;2.80;2.60;;;;;;;;;;5051896;28;20201;-83
2022/07/25 01:53:57;;;;;;;2.83;2.63;;;;;;;;;;5058473;28;20316;-82
2022/07/25 01:56:26;;;;;;;2.53;2.35;;;;;;;;;;5058418;28;20229;-81
2022/07/25 01:58:54;;;;;;;2.53;2.30;;;;;;;;;;5057599;28;20324;-83
2022/07/25 02:01:21;;;;;;;2.53;2.33;;;;;;;;;;5057478;28;20206;-82
2022/07/25 02:03:49;;;;;;;3.33;2.90;;;;;;;;;;5058412;28;20233;-82
2022/07/25 02:06:17;;;;;;;2.70;2.50;;;;;;;;;;5057416;28;20209;-82
2022/07/25 02:08:45;;;;;;;3.00;2.80;;;;;;;;;;5058260;28;20289;-83
2022/07/25 02:11:12;;;;;;;3.25;3.00;;;;;;;;;;5056802;28;20245;-82
2022/07/25 02:13:41;;;;;;;3.05;2.85;;;;;;;;;;5057776;28;20281;-82
2022/07/25 02:16:09;;;;;;;2.67;2.47;;;;;;;;;;5057573;28;20201;-82
2022/07/25 02:18:36;;;;;;;3.30;3.00;;;;;;;;;;5060000;28;20253;-82
2022/07/25 02:21:06;;;;;;;2.85;2.65;;;;;;;;;;5047440;28;20249;-82
2022/07/25 02:23:33;;;;;;;2.65;2.50;;;;;;;;;;5040942;28;20297;-83
2022/07/25 02:26:01;;;;;;;2.47;2.38;;;;;;;;;;5040903;28;20230;-82
2022/07/25 02:28:28;;;;;;;2.30;2.15;;;;;;;;;;5040746;28;20335;-81
2022/07/25 02:30:58;;;;;;;2.40;2.30;;;;;;;;;;5042383;28;20675;-82
2022/07/25 02:33:25;;;;;;;2.95;2.75;;;;;;;;;;5041802;28;20226;-83
2022/07/25 02:35:53;;;;;;;2.40;2.20;;;;;;;;;;5041831;28;20235;-82
2022/07/25 02:38:20;;;;;;;2.25;2.08;;;;;;;;;;5041050;28;20269;-81
2022/07/25 02:40:49;;;;;;;2.20;2.08;;;;;;;;;;5041003;28;20237;-81
2022/07/25 02:43:17;;;;;;;1.70;1.60;;;;;;;;;;5041207;28;20237;-82
2022/07/25 02:45:45;;;;;;;2.30;2.20;;;;;;;;;;5040890;28;20641;-82
2022/07/25 02:48:14;;;;;;;2.08;1.98;;;;;;;;;;5040334;28;20206;-82
2022/07/25 02:50:41;;;;;;;2.42;2.30;;;;;;;;;;5049980;28;20259;-83
2022/07/25 02:53:09;;;;;;;2.78;2.50;;;;;;;;;;5059771;28;20257;-82
2022/07/25 02:55:37;;;;;;;2.20;2.05;;;;;;;;;;5059956;28;20714;-82
2022/07/25 02:58:04;;;;;;;2.70;2.00;;;;;;;;;;5058430;28;20230;-82
2022/07/25 03:00:32;;;;;;;2.00;1.90;;;;;;;;;;5059522;28;20206;-82
2022/07/25 03:02:59;;;;;;;2.78;1.95;;;;;;;;;;5059445;28;20209;-82
2022/07/25 03:05:29;;;;;;;2.35;2.17;;;;;;;;;;5059728;28;20221;-82
2022/07/25 03:07:56;;;;;;;2.22;2.13;;;;;;;;;;5058842;28;20190;-83
2022/07/25 03:10:24;;;;;;;2.50;2.30;;;;;;;;;;5059205;28;20253;-83
2022/07/25 03:12:51;;;;;;;3.10;2.33;;;;;;;;;;5059462;28;20218;-83
2022/07/25 03:15:19;;;;;;;2.30;2.20;;;;;;;;;;5059116;28;20285;-83
2022/07/25 03:17:46;;;;;;;2.20;2.10;;;;;;;;;;5058630;28;20234;-82
2022/07/25 03:20:14;;;;;;;2.10;2.00;;;;;;;;;;5052523;28;20269;-83
2022/07/25 03:22:43;;;;;;;2.45;2.33;;;;;;;;;;5038998;28;20619;-82
2022/07/25 03:25:11;;;;;;;2.20;2.10;;;;;;;;;;5039258;28;20670;-82
2022/07/25 03:27:38;;;;;;;2.65;2.50;;;;;;;;;;5038419;28;20202;-82
2022/07/25 03:30:07;;;;;;;2.22;2.13;;;;;;;;;;5040011;28;20309;-82
2022/07/25 03:32:35;;;;;;;3.00;2.80;;;;;;;;;;5040214;28;20242;-81
2022/07/25 03:35:03;;;;;;;2.20;2.10;;;;;;;;;;5040140;28;20245;-83
2022/07/25 03:37:32;;;;;;;2.60;2.40;;;;;;;;;;5038465;28;20229;-83
2022/07/25 03:40:00;;;;;;;2.22;2.10;;;;;;;;;;5039586;28;20222;-82
2022/07/25 03:42:28;;;;;;;2.28;2.08;;;;;;;;;;5039689;28;20226;-82
2022/07/25 03:44:56;;;;;;;2.28;2.10;;;;;;;;;;5040442;28;20614;-81
2022/07/25 03:47:23;;;;;;;2.58;2.38;;;;;;;;;;5037759;28;20842;-82
2022/07/25 03:49:51;;;;;;;2.60;2.40;;;;;;;;;;5059903;22;20297;-78
2022/07/25 03:52:18;;;;;;;2.65;2.45;;;;;;;;;;5026225;28;20218;-77
2022/07/25 03:54:46;;;;;;;2.10;2.00;;;;;;;;;;5034306;28;20289;-76
2022/07/25 03:57:14;;;;;;;2.22;1.80;;;;;;;;;;5034193;28;20198;-77
2022/07/25 03:59:42;;;;;;;2.00;1.90;;;;;;;;;;5033808;28;20309;-77
2022/07/25 04:02:10;;;;;;;2.20;2.10;;;;;;;;;;5033780;28;20294;-77
2022/07/25 04:04:37;;;;;;;2.00;1.90;;;;;;;;;;5034310;28;20199;-77
2022/07/25 04:07:05;;;;;;;2.10;2.00;;;;;;;;;;5036781;28;20270;-77
2022/07/25 04:09:32;;;;;;;2.33;2.13;;;;;;;;;;5034582;28;20205;-77
2022/07/25 04:12:00;;;;;;;2.08;1.98;;;;;;;;;;5034933;28;20352;-77
2022/07/25 04:14:29;;;;;;;2.17;2.08;;;;;;;;;;5036824;28;20250;-77
2022/07/25 04:16:56;;;;;;;2.13;2.03;;;;;;;;;;5033995;28;20206;-77
2022/07/25 04:19:24;;;;;;;2.55;2.35;;;;;;;;;;5037125;28;20285;-78
2022/07/25 04:21:51;;;;;;;2.50;2.40;;;;;;;;;;5036515;28;20313;-78
2022/07/25 04:24:18;;;;;;;2.50;2.30;;;;;;;;;;5033788;28;20293;-77
2022/07/25 04:26:46;;;;;;;3.13;2.42;;;;;;;;;;5033557;28;20295;-76
2022/07/25 04:29:13;;;;;;;2.90;2.70;;;;;;;;;;5033036;28;20199;-77
2022/07/25 04:31:42;;;;;;;2.88;2.67;;;;;;;;;;5032902;28;20697;-77
2022/07/25 04:34:10;;;;;;;2.30;2.10;;;;;;;;;;5033990;28;20225;-77
2022/07/25 04:36:37;;;;;;;2.72;2.53;;;;;;;;;;5034813;28;20233;-77
2022/07/25 04:39:05;;;;;;;2.72;2.53;;;;;;;;;;5033035;28;20288;-77
2022/07/25 04:41:33;;;;;;;3.10;2.90;;;;;;;;;;5036629;28;20594;-77
2022/07/25 04:44:00;;;;;;;2.65;2.45;;;;;;;;;;5036131;28;20730;-77
2022/07/25 04:46:28;;;;;;;2.67;2.47;;;;;;;;;;5033331;28;20289;-77
2022/07/25 04:48:57;;;;;;;2.55;2.38;;;;;;;;;;5035912;28;20269;-78
2022/07/25 04:51:24;;;;;;;2.50;2.30;;;;;;;;;;5050654;28;20222;-77
2022/07/25 04:53:52;;;;;;;2.63;2.42;;;;;;;;;;5055722;28;20201;-77
2022/07/25 04:56:19;;;;;;;2.97;2.67;;;;;;;;;;5053104;28;20218;-76
2022/07/25 04:58:47;;;;;;;2.95;2.75;;;;;;;;;;5052721;28;20308;-76
2022/07/25 05:01:14;;;;;;;2.50;2.40;;;;;;;;;;5054423;28;20239;-78
2022/07/25 05:03:42;;;;;;;2.92;2.70;;;;;;;;;;5055206;28;20198;-77
2022/07/25 05:06:11;;;;;;;2.78;2.58;;;;;;;;;;5054308;28;20305;-77
2022/07/25 05:08:39;;;;;;;3.17;2.90;;;;;;;;;;5053557;28;20201;-77
2022/07/25 05:11:06;;;;;;;4.70;3.65;;;;;;;;;;5056239;28;20308;-77
2022/07/25 05:13:34;;;;;;;3.70;3.40;;;;;;;;;;5054394;28;20241;-77
2022/07/25 05:16:01;;;;;;;3.50;3.20;;;;;;;;;;5065647;28;20252;-76
2022/07/25 05:18:29;;;;;;;3.25;3.05;;;;;;;;;;5066548;28;20243;-81
2022/07/25 05:20:57;;;;;;;2.85;2.65;;;;;;;;;;5064462;22;20342;-85
2022/07/25 05:23:26;;;;;;;2.80;2.60;;;;;;;;;;5035775;28;20233;-85
2022/07/25 05:25:53;;;;;;;2.90;2.63;;;;;;;;;;5035592;28;20290;-84
2022/07/25 05:28:21;;;;;;;4.00;3.60;;;;;;;;;;5034345;28;20241;-86
2022/07/25 05:30:48;;;;;;;2.80;2.60;;;;;;;;;;5034822;28;20304;-86
2022/07/25 05:33:16;;;;;;;3.30;3.03;;;;;;;;;;5034820;28;20290;-84
2022/07/25 05:35:43;;;;;;;3.95;3.55;;;;;;;;;;5034948;28;20718;-85
2022/07/25 05:38:11;;;;;;;4.03;3.72;;;;;;;;;;5033951;28;20237;-84
2022/07/25 05:40:40;;;;;;;5.30;3.70;;;;;;;;;;5034966;28;20627;-83
2022/07/25 05:43:08;;;;;;;4.38;4.03;;;;;;;;;;5030861;28;20282;-84
2022/07/25 05:45:35;;;;;;;4.03;3.63;;;;;;;;;;5042561;28;20647;-84
2022/07/25 05:48:03;;;;;;;3.72;3.42;;;;;;;;;;5032723;28;20273;-84
2022/07/25 05:50:30;;;;;;;3.88;3.58;;;;;;;;;;5035633;28;20317;-83
2022/07/25 05:52:58;;;;;;;3.72;3.42;;;;;;;;;;5038501;28;20285;-83
2022/07/25 05:55:25;;;;;;;4.13;3.60;;;;;;;;;;5038481;28;20797;-82
2022/07/25 05:57:54;;;;;;;3.33;3.08;;;;;;;;;;5044604;28;20208;-84
2022/07/25 06:00:22;;;;;;;3.25;3.00;;;;;;;;;;5049885;28;20283;-82
2022/07/25 06:02:49;;;;;;;4.18;3.88;;;;;;;;;;5042032;28;20199;-84
2022/07/25 06:05:17;;;;;;;3.10;2.90;;;;;;;;;;5038503;28;20281;-84
2022/07/25 06:07:45;;;;;;;4.60;4.20;;;;;;;;;;5038472;28;20198;-85
2022/07/25 06:10:12;;;;;;;3.80;3.50;;;;;;;;;;5037380;28;20218;-84
2022/07/25 06:12:40;;;;;;;4.50;4.10;;;;;;;;;;5038707;28;20288;-83
2022/07/25 06:15:10;;;;;;;4.22;3.63;;;;;;;;;;5042691;28;20706;-83
2022/07/25 06:17:38;;;;;;;3.85;3.55;;;;;;;;;;5041779;28;20198;-85
2022/07/25 06:20:07;;;;;;;4.13;3.72;;;;;;;;;;5041515;28;20249;-86
2022/07/25 06:22:34;;;;;;;4.68;4.28;;;;;;;;;;5041514;28;20230;-86
2022/07/25 06:25:02;;;;;;;6.88;4.65;;;;;;;;;;5042061;28;20202;-86
2022/07/25 06:27:30;;;;;;;5.05;4.20;;;;;;;;;;5041550;28;20253;-86
2022/07/25 06:29:58;;;;;;;4.30;3.97;;;;;;;;;;5040891;28;20233;-87
2022/07/25 06:32:27;;;;;;;3.88;3.58;;;;;;;;;;5041445;28;20213;-84
2022/07/25 06:34:54;;;;;;;5.72;4.78;;;;;;;;;;5041117;28;20237;-86
2022/07/25 06:37:22;;;;;;;4.20;3.90;;;;;;;;;;5040255;28;20264;-86
2022/07/25 06:39:49;;;;;;;4.88;4.43;;;;;;;;;;5040718;28;20254;-84
2022/07/25 06:42:17;;;;;;;6.05;4.72;;;;;;;;;;5040159;28;20245;-86
2022/07/25 06:44:44;;;;;;;3.92;3.63;;;;;;;;;;5041303;28;20623;-86
2022/07/25 06:47:12;;;;;;;4.25;3.88;;;;;;;;;;5039649;28;20653;-86
2022/07/25 06:49:42;;;;;;;4.80;4.40;;;;;;;;;;5040397;28;20257;-85
2022/07/25 06:52:10;;;;;;;4.50;4.10;;;;;;;;;;5040697;28;20277;-84
2022/07/25 06:54:37;;;;;;;3.92;3.63;;;;;;;;;;5039875;28;20257;-86
2022/07/25 06:57:05;;;;;;;5.20;4.80;;;;;;;;;;5040058;28;20675;-86
2022/07/25 06:59:33;;;;;;;4.82;4.43;;;;;;;;;;5039689;28;20261;-85
2022/07/25 07:02:01;;;;;;;4.95;4.53;;;;;;;;;;5041097;28;20202;-86
2022/07/25 07:04:28;;;;;;;4.57;4.18;;;;;;;;;;5041349;28;20293;-87
2022/07/25 07:06:57;;;;;;;4.85;4.45;;;;;;;;;;5040884;28;20233;-84
2022/07/25 07:09:25;;;;;;;4.78;4.05;;;;;;;;;;5041174;28;20206;-85
2022/07/25 07:11:52;;;;;;;5.45;5.05;;;;;;;;;;5040967;28;20229;-84
2022/07/25 07:14:20;;;;;;;5.18;4.75;;;;;;;;;;5041579;28;20238;-84
2022/07/25 07:16:47;;;;;;;4.93;4.53;;;;;;;;;;5039810;28;20718;-84
2022/07/25 07:19:15;;;;;;;5.57;5.07;;;;;;;;;;5040211;28;20262;-85
2022/07/25 07:21:42;;;;;;;5.50;5.03;;;;;;;;;;5034519;28;20211;-85
2022/07/25 07:24:11;;;;;;;6.13;5.63;;;;;;;;;;5039520;28;20281;-86
2022/07/25 07:26:39;;;;;;;5.93;5.43;;;;;;;;;;5040949;28;20214;-86
2022/07/25 07:29:06;;;;;;;5.43;4.93;;;;;;;;;;5040666;28;20226;-86
2022/07/25 07:31:34;;;;;;;4.32;4.00;;;;;;;;;;5040479;28;20226;-86
2022/07/25 07:34:01;;;;;;;5.47;4.90;;;;;;;;;;5040835;28;20285;-85
2022/07/25 07:36:29;;;;;;;5.30;4.90;;;;;;;;;;5041166;28;20225;-85
2022/07/25 07:38:57;;;;;;;6.03;5.53;;;;;;;;;;5041312;28;20289;-85
2022/07/25 07:41:26;;;;;;;4.95;4.55;;;;;;;;;;5040831;28;20286;-84
2022/07/25 07:43:53;;;;;;;5.72;5.22;;;;;;;;;;5039527;28;20230;-87
2022/07/25 07:46:21;;;;;;;5.60;5.20;;;;;;;;;;5036117;28;20234;-86
2022/07/25 07:48:48;;;;;;;5.85;5.45;;;;;;;;;;5036155;28;20206;-86
2022/07/25 07:51:16;;;;;;;5.30;4.90;;;;;;;;;;5037010;28;20225;-87
2022/07/25 07:56:30;;;;;;;4.72;4.28;;;;;;;;;;5038143;28;20229;-85
2022/07/25 07:58:57;;;;;;;5.72;5.25;;;;;;;;;;5018615;28;20203;-85
2022/07/25 08:01:25;;;;;;;4.55;4.25;;;;;;;;;;5017719;28;20631;-84
2022/07/25 08:03:53;;;;;;;4.85;4.55;;;;;;;;;;5017330;28;20207;-83
2022/07/25 08:06:20;;;;;;;4.30;4.00;;;;;;;;;;5016484;28;20233;-84
2022/07/25 08:08:48;;;;;;;4.88;4.47;;;;;;;;;;5017935;28;20237;-85
2022/07/25 08:11:16;;;;;;;4.20;3.80;;;;;;;;;;5017658;28;20575;-84
2022/07/25 08:13:45;;;;;;;4.22;3.92;;;;;;;;;;5015849;28;20646;-86
2022/07/25 08:16:13;;;;;;;4.20;3.90;;;;;;;;;;5017621;28;20286;-82
2022/07/25 08:18:41;;;;;;;4.07;3.78;;;;;;;;;;5018950;28;20203;-85
2022/07/25 08:21:08;;;;;;;4.57;4.28;;;;;;;;;;5045022;28;20717;-86
2022/07/25 08:23:37;;;;;;;5.30;4.90;;;;;;;;;;5056787;28;20205;-85
2022/07/25 08:26:06;;;;;;;4.85;4.45;;;;;;;;;;5057257;28;20213;-86
2022/07/25 08:28:34;;;;;;;4.55;4.25;;;;;;;;;;5039334;28;20213;-84
2022/07/25 08:31:03;;;;;;;5.50;5.10;;;;;;;;;;5036392;28;20219;-86
2022/07/25 08:33:30;;;;;;;4.80;4.40;;;;;;;;;;5035427;28;20650;-84
2022/07/25 08:35:58;;;;;;;4.60;4.20;;;;;;;;;;5035905;28;20202;-85
2022/07/25 08:38:28;;;;;;;4.78;4.40;;;;;;;;;;5035021;28;20226;-85
2022/07/25 08:40:56;;;;;;;4.68;4.38;;;;;;;;;;5035904;28;20317;-85
2022/07/25 08:43:24;;;;;;;5.03;4.65;;;;;;;;;;5035630;28;20229;-85
2022/07/25 08:45:53;;;;;;;5.22;4.82;;;;;;;;;;5036185;28;20293;-86
2022/07/25 08:48:24;;;;;;;4.40;4.10;;;;;;;;;;5034471;28;20226;-85
2022/07/25 08:50:53;;;;;;;4.72;4.43;;;;;;;;;;5035517;28;20249;-85
2022/07/25 08:53:21;;;;;;;4.45;4.15;;;;;;;;;;5035522;28;20205;-85
2022/07/25 08:55:49;;;;;;;5.68;5.28;;;;;;;;;;5036120;28;20233;-85
2022/07/25 08:58:18;;;;;;;5.32;4.93;;;;;;;;;;5034682;28;20313;-87
2022/07/25 09:00:46;;;;;;;5.13;4.82;;;;;;;;;;5035583;28;20301;-85
2022/07/25 09:03:14;;;;;;;4.78;4.47;;;;;;;;;;5036992;28;20198;-85
2022/07/25 09:05:43;;;;;;;4.97;4.57;;;;;;;;;;5035951;28;20293;-85
2022/07/25 09:08:12;;;;;;;4.75;4.45;;;;;;;;;;5036030;28;20256;-84
2022/07/25 09:10:44;;;;;;;5.97;5.47;;;;;;;;;;5036551;28;20718;-84
2022/07/25 09:13:13;;;;;;;5.28;4.88;;;;;;;;;;5036516;28;20235;-85
2022/07/25 09:15:44;;;;;;;5.50;5.10;;;;;;;;;;5035720;28;20217;-84
2022/07/25 09:18:14;;;;;;;4.50;4.20;;;;;;;;;;5035814;28;20298;-86
2022/07/25 09:20:45;;;;;;;4.68;4.38;;;;;;;;;;5045591;28;20709;-84
2022/07/25 09:23:14;;;;;;;5.28;4.95;;;;;;;;;;5056555;28;20232;-85
2022/07/25 09:25:43;;;;;;;5.80;5.30;;;;;;;;;;5058164;28;20285;-84
2022/07/25 09:28:15;;;;;;;5.55;5.15;;;;;;;;;;5044681;28;20244;-86
2022/07/25 09:30:54;;;;;;;5.70;5.30;;;;;;;;;;5040058;28;20253;-85
2022/07/25 09:33:23;;;;;;;5.07;4.72;;;;;;;;;;5039534;28;20205;-85
2022/07/25 09:35:52;;;;;;;5.68;5.28;;;;;;;;;;5039337;28;20230;-85
2022/07/25 09:38:21;;;;;;;4.30;4.00;;;;;;;;;;5039578;28;20221;-87
2022/07/25 09:40:57;;;;;;;5.38;5.07;;;;;;;;;;5039865;28;20245;-84
2022/07/25 09:43:35;;;;;;;5.18;4.85;;;;;;;;;;5038780;28;20201;-84
2022/07/25 09:46:02;;;;;;;5.88;5.38;;;;;;;;;;5039294;28;20182;-84
2022/07/25 09:48:30;;;;;;;5.25;4.90;;;;;;;;;;5037777;28;20234;-85
2022/07/25 09:51:01;;;;;;;5.45;5.15;;;;;;;;;;5052517;22;20264;-82
2022/07/25 09:53:29;;;;;;;4.90;4.60;;;;;;;;;;5038636;28;20288;-81
2022/07/25 09:55:56;;;;;;;5.20;4.80;;;;;;;;;;5037840;28;20201;-81
2022/07/25 09:58:24;;;;;;;5.38;5.03;;;;;;;;;;5037506;28;20232;-82
2022/07/25 10:00:54;;;;;;;5.50;5.20;;;;;;;;;;5038092;28;20258;-81
2022/07/25 10:03:34;;;;;;;5.60;5.20;;;;;;;;;;5038201;28;20297;-82
2022/07/25 10:06:19;;;;;;;6.07;5.72;;;;;;;;;;5037840;28;20197;-81
2022/07/25 10:08:47;;;;;;;6.55;5.72;;;;;;;;;;5038014;28;20673;-82
2022/07/25 10:11:23;;;;;;;5.95;5.50;;;;;;;;;;5039159;28;20222;-81
2022/07/25 10:13:51;;;;;;;5.13;4.82;;;;;;;;;;5038334;28;20669;-81
2022/07/25 10:16:20;;;;;;;5.95;5.55;;;;;;;;;;5037242;28;20292;-81
2022/07/25 10:18:50;;;;;;;5.65;5.35;;;;;;;;;;5037552;28;20312;-82
2022/07/25 10:21:20;;;;;;;5.93;5.53;;;;;;;;;;5038791;28;20308;-81
2022/07/25 10:23:59;;;;;;;5.28;4.97;;;;;;;;;;5037614;28;20284;-82
2022/07/25 10:26:27;;;;;;;4.88;4.57;;;;;;;;;;5037782;28;20197;-82
2022/07/25 10:28:56;;;;;;;3.83;3.55;;;;;;;;;;5018436;28;20201;-82
2022/07/25 10:31:26;;;;;;;4.78;4.38;;;;;;;;;;5018889;28;20227;-82
2022/07/25 10:33:57;;;;;;;15.35;8.15;;;;;;;;;;5018654;28;20613;-82
2022/07/25 10:36:32;;;;;;;6.95;6.28;;;;;;;;;;5017464;28;20203;-82
2022/07/25 10:39:01;;;;;;;5.70;5.30;;;;;;;;;;5034376;28;20221;-82
2022/07/25 10:41:29;;;;;;;6.57;6.07;;;;;;;;;;5040733;28;20221;-81
2022/07/25 10:44:01;;;;;;;5.95;5.55;;;;;;;;;;5041775;28;20212;-81
2022/07/25 10:46:31;;;;;;;6.10;5.70;;;;;;;;;;5041256;28;20308;-81
2022/07/25 10:49:01;;;;;;;5.00;4.70;;;;;;;;;;5041240;28;20577;-82
2022/07/25 10:51:33;;;;;;;5.40;5.00;;;;;;;;;;5041639;28;20256;-82
2022/07/25 10:54:01;;;;;;;5.88;5.47;;;;;;;;;;5042417;28;20288;-81
2022/07/25 10:56:29;;;;;;;5.93;5.53;;;;;;;;;;5039321;28;20205;-81
2022/07/25 10:58:58;;;;;;;5.32;4.93;;;;;;;;;;5019510;28;20233;-82
2022/07/25 11:01:27;;;;;;;5.80;5.40;;;;;;;;;;5020031;28;20310;-82
2022/07/25 11:03:57;;;;;;;5.53;5.20;;;;;;;;;;5019037;28;20292;-82
2022/07/25 11:06:35;;;;;;;5.78;5.28;;;;;;;;;;5019961;28;20203;-82
2022/07/25 11:09:03;;;;;;;5.15;4.80;;;;;;;;;;5019634;28;20671;-82
2022/07/25 11:11:36;;;;;;;5.15;4.85;;;;;;;;;;5019878;28;20296;-82
2022/07/25 11:14:05;;;;;;;4.57;4.28;;;;;;;;;;5020945;28;20198;-82
2022/07/25 11:16:33;;;;;;;4.40;4.10;;;;;;;;;;5019921;28;20207;-82
2022/07/25 11:19:00;;;;;;;4.40;4.10;;;;;;;;;;5017974;28;20258;-81
2022/07/25 11:21:28;;;;;;;4.65;4.35;;;;;;;;;;5054542;22;20336;-81
2022/07/25 11:23:56;;;;;;;4.30;4.05;;;;;;;;;;5036842;28;20738;-79
2022/07/25 11:26:24;;;;;;;4.88;4.57;;;;;;;;;;5036617;28;20750;-80
2022/07/25 11:28:51;;;;;;;4.78;4.47;;;;;;;;;;5017049;28;20297;-80
2022/07/25 11:31:22;;;;;;;4.72;4.43;;;;;;;;;;5016573;28;20704;-80
2022/07/25 11:33:50;;;;;;;4.82;4.43;;;;;;;;;;5016455;28;20643;-80
2022/07/25 11:36:17;;;;;;;3.97;3.67;;;;;;;;;;5015642;28;20297;-80
2022/07/25 11:38:48;;;;;;;4.53;4.22;;;;;;;;;;5015987;28;20637;-81
2022/07/25 11:41:27;;;;;;;5.25;4.85;;;;;;;;;;5016158;28;20262;-79
2022/07/25 11:43:55;;;;;;;3.75;3.55;;;;;;;;;;5016028;28;20269;-81
2022/07/25 11:46:22;;;;;;;4.32;4.03;;;;;;;;;;5015780;28;20207;-81
2022/07/25 11:48:50;;;;;;;5.57;5.20;;;;;;;;;;5015466;28;20876;-82
2022/07/25 11:51:19;;;;;;;5.15;4.85;;;;;;;;;;5026466;28;20248;-82
2022/07/25 11:53:51;;;;;;;5.20;4.80;;;;;;;;;;5035460;28;20190;-81
2022/07/25 11:56:23;;;;;;;5.05;4.75;;;;;;;;;;5035696;28;20232;-81
2022/07/25 11:58:58;;;;;;;4.90;4.60;;;;;;;;;;5032631;28;20904;-82
2022/07/25 12:01:33;;;;;;;4.78;4.47;;;;;;;;;;5027287;28;20213;-82
2022/07/25 12:04:10;;;;;;;4.78;4.47;;;;;;;;;;5035616;28;20253;-81
2022/07/25 12:06:38;;;;;;;4.53;4.20;;;;;;;;;;5034919;28;20269;-82
2022/07/25 12:09:13;;;;;;;4.78;4.47;;;;;;;;;;5035141;28;20201;-80
2022/07/25 12:11:42;;;;;;;4.50;4.20;;;;;;;;;;5034977;28;20308;-82
2022/07/25 12:14:12;;;;;;;5.50;5.00;;;;;;;;;;5035486;28;20216;-82
2022/07/25 12:16:40;;;;;;;5.47;5.18;;;;;;;;;;5035314;28;20248;-83
2022/07/25 12:19:18;;;;;;;5.05;4.75;;;;;;;;;;5035102;28;20215;-81
2022/07/25 12:21:45;;;;;;;5.60;5.20;;;;;;;;;;5035582;28;20205;-81
2022/07/25 12:24:13;;;;;;;4.50;4.20;;;;;;;;;;5035449;28;20202;-82
2022/07/25 12:26:42;;;;;;;4.10;3.90;;;;;;;;;;5035797;28;20294;-82
2022/07/25 12:29:09;;;;;;;5.07;4.78;;;;;;;;;;5035372;28;20234;-82
2022/07/25 12:31:37;;;;;;;5.30;5.00;;;;;;;;;;5035380;28;20253;-85
2022/07/25 12:34:04;;;;;;;6.22;5.78;;;;;;;;;;5036551;28;20225;-82
2022/07/25 12:36:33;;;;;;;5.25;4.85;;;;;;;;;;5037603;28;20205;-80
2022/07/25 12:39:00;;;;;;;5.47;5.07;;;;;;;;;;5037163;28;20218;-82
2022/07/25 12:41:28;;;;;;;4.30;4.00;;;;;;;;;;5037457;28;20228;-79
2022/07/25 12:43:57;;;;;;;4.57;4.28;;;;;;;;;;5037971;28;20206;-82
2022/07/25 12:46:25;;;;;;;4.63;4.32;;;;;;;;;;5035691;28;20197;-81
2022/07/25 12:48:52;;;;;;;4.78;4.47;;;;;;;;;;5035170;28;20631;-82
2022/07/25 12:51:20;;;;;;;11.38;6.38;;;;;;;;;;5034740;28;20335;-81
2022/07/25 12:53:47;;;;;;;6.82;6.20;;;;;;;;;;5034638;28;20245;-82
2022/07/25 12:56:16;;;;;;;6.00;5.60;;;;;;;;;;5033867;28;20683;-80
2022/07/25 12:58:43;;;;;;;5.65;5.00;;;;;;;;;;5033725;28;20205;-82
2022/07/25 13:01:12;;;;;;;5.43;5.03;;;;;;;;;;5033644;28;20289;-80
2022/07/25 13:03:40;;;;;;;5.25;4.78;;;;;;;;;;5034299;28;20309;-80
2022/07/25 13:06:08;;;;;;;4.55;4.25;;;;;;;;;;5034125;28;20289;-81
2022/07/25 13:08:36;;;;;;;3.70;3.50;;;;;;;;;;5033772;28;20209;-82
2022/07/25 13:11:04;;;;;;;3.70;3.40;;;;;;;;;;5034007;28;20725;-81
2022/07/25 13:13:31;;;;;;;4.40;4.10;;;;;;;;;;5034273;28;20296;-81
2022/07/25 13:15:59;;;;;;;3.88;3.58;;;;;;;;;;5033895;28;20294;-80
2022/07/25 13:18:29;;;;;;;4.55;4.22;;;;;;;;;;5033516;28;20210;-81
2022/07/25 13:20:56;;;;;;;4.82;4.43;;;;;;;;;;5047254;28;20705;-80
2022/07/25 13:23:24;;;;;;;4.72;4.32;;;;;;;;;;5054202;28;20237;-81
2022/07/25 13:25:52;;;;;;;3.60;3.40;;;;;;;;;;5054881;28;20293;-81
2022/07/25 13:28:19;;;;;;;4.70;4.25;;;;;;;;;;5038382;28;20293;-79
2022/07/25 13:30:47;;;;;;;4.65;4.25;;;;;;;;;;5034036;28;20261;-80
2022/07/25 13:33:14;;;;;;;4.93;4.28;;;;;;;;;;5034582;28;20571;-81
2022/07/25 13:35:43;;;;;;;4.78;4.38;;;;;;;;;;5034530;28;20212;-79
2022/07/25 13:38:11;;;;;;;4.82;4.47;;;;;;;;;;5033845;28;20233;-79
2022/07/25 13:40:40;;;;;;;6.45;4.95;;;;;;;;;;5030646;28;20306;-79
2022/07/25 13:43:08;;;;;;;4.60;4.20;;;;;;;;;;5034404;28;20206;-81
2022/07/25 13:45:36;;;;;;;4.68;4.28;;;;;;;;;;5034173;28;20282;-81
2022/07/25 13:48:03;;;;;;;4.20;3.90;;;;;;;;;;5018863;28;20226;-80
2022/07/25 13:50:31;;;;;;;4.38;3.97;;;;;;;;;;5022311;28;20222;-80
2022/07/25 13:53:02;;;;;;;3.92;3.63;;;;;;;;;;5033521;28;20206;-80
2022/07/25 13:55:31;;;;;;;4.28;3.97;;;;;;;;;;5033640;28;20240;-80
2022/07/25 13:57:59;;;;;;;3.90;3.60;;;;;;;;;;5032721;28;20297;-79
2022/07/25 14:00:27;;;;;;;4.45;4.13;;;;;;;;;;5033955;28;20266;-79
2022/07/25 14:02:54;;;;;;;3.65;3.45;;;;;;;;;;5033673;28;20209;-80
2022/07/25 14:05:23;;;;;;;3.17;2.90;;;;;;;;;;5033602;28;20210;-78
2022/07/25 14:07:50;;;;;;;3.67;3.40;;;;;;;;;;5033617;28;20218;-79
2022/07/25 14:10:19;;;;;;;3.95;3.65;;;;;;;;;;5032835;28;20309;-79
2022/07/25 14:12:47;;;;;;;3.67;3.47;;;;;;;;;;5037053;28;20577;-82
2022/07/25 14:15:14;;;;;;;4.93;4.10;;;;;;;;;;5036858;28;20274;-79
2022/07/25 14:17:42;;;;;;;4.25;3.88;;;;;;;;;;5036166;28;20240;-79
2022/07/25 14:20:11;;;;;;;3.78;3.47;;;;;;;;;;5036620;28;20242;-79
2022/07/25 14:22:40;;;;;;;4.28;3.88;;;;;;;;;;5036562;28;20612;-80
2022/07/25 14:25:09;;;;;;;4.05;3.75;;;;;;;;;;5037346;28;20206;-80
2022/07/25 14:27:39;;;;;;;4.50;4.10;;;;;;;;;;5036157;28;20289;-80
2022/07/25 14:30:10;;;;;;;4.32;3.92;;;;;;;;;;5037117;28;20675;-80
2022/07/25 14:32:37;;;;;;;4.93;4.50;;;;;;;;;;5036690;28;20290;-81
2022/07/25 14:35:06;;;;;;;4.90;4.50;;;;;;;;;;5036675;28;20285;-81
2022/07/25 14:37:34;;;;;;;4.55;4.25;;;;;;;;;;5036223;28;20719;-79
2022/07/25 14:40:03;;;;;;;4.75;4.40;;;;;;;;;;5035875;28;20313;-80
2022/07/25 14:42:30;;;;;;;4.32;4.03;;;;;;;;;;5036197;28;20320;-80
2022/07/25 14:44:59;;;;;;;4.07;3.80;;;;;;;;;;5035791;28;20709;-80
2022/07/25 14:47:27;;;;;;;4.05;3.75;;;;;;;;;;5033810;28;20294;-80
2022/07/25 14:49:54;;;;;;;3.50;3.20;;;;;;;;;;5039876;28;20285;-80
2022/07/25 14:52:22;;;;;;;3.88;3.58;;;;;;;;;;5056888;28;20208;-80